Flight Track Log - Related Links

Times and Time Zones

All times are in EDT time to prevent confusion due to time zone crossing. See the RPA3392 flight status page for this flight to view local times or setup timezone preferences in your user account.

Time Position Orientation Groundspeed Altitude Reporting Facility
EDT Latitude Longitude Course Direction KTS MPH feet Rate Location/Type
Tue 10:30:02 PM 38.7833 -77.0333 286° West 189 217 3,300  Level Potomac TRACON
Tue 10:31:02 PM 38.7833 -77.1000 270° West 265 305 6,100 2,900 Climbing Potomac TRACON
Tue 10:32:02 PM 38.8333 -77.1667 314° West 285 328 9,100 2,550 Climbing Potomac TRACON
Tue 10:33:02 PM 38.9000 -77.2500 316° Northwest 311 358 11,200 2,300 Climbing Potomac TRACON
Tue 10:34:00 PM 39.5913 -77.4290 339° North  Level FlightAware Approximate
Tue 10:34:02 PM 38.9667 -77.3333 316° Northwest 325 374 13,700  Level Potomac TRACON
Tue 10:35:00 PM 39.6721 -77.5575 286° West  Level FlightAware Approximate
Tue 10:35:59 PM 39.0858 -77.5036 312° West 382 440 17,000  Level Washington Center
Tue 10:36:58 PM 39.1786 -77.5622 334° Northwest 366 421 17,000 151 Level Washington Center
Tue 10:37:58 PM 39.2783 -77.5836 351° North 361 415 17,300 1,050 Climbing Washington Center
Tue 10:38:58 PM 39.3811 -77.5464 16° North 354 407 19,100 1,881 Climbing Washington Center
Tue 10:39:56 PM 39.4881 -77.5114 14° North 369 425 21,000 1,714 Climbing Washington Center
Tue 10:40:57 PM 39.5853 -77.5492 343° North 369 425 22,500 1,510 Climbing Washington Center
Tue 10:42:31 PM 39.6775 -77.7483 301° West 365 420 24,900 1,481 Climbing Cleveland Center
Tue 10:43:31 PM 39.7369 -77.8753 301° West 398 458 26,300 1,050 Climbing Cleveland Center
Tue 10:44:31 PM 39.7939 -78.0028 300° West 404 465 27,000 350 Climbing Cleveland Center
Tue 10:45:31 PM 39.8467 -78.1169 301° West 389 448 27,000  Level Cleveland Center
Tue 10:46:31 PM 39.9011 -78.2314 302° West 379 436 27,000  Level Cleveland Center
Tue 10:47:31 PM 39.9469 -78.3381 299° West 371 427 27,000  Level Cleveland Center
Tue 10:48:31 PM 40.0036 -78.4556 302° West 371 427 27,000  Level Cleveland Center
Tue 10:49:31 PM 40.1064 -78.4875 347° North 356 410 27,000  Level Cleveland Center
Tue 10:50:31 PM 40.2050 -78.4164 29° Northeast 331 381 27,000  Level Cleveland Center
Tue 10:52:51 PM 40.4392 -78.2219 32° Northeast 399 459 27,000  Level New York Center
Tue 10:53:51 PM 40.5361 -78.1394 33° Northeast 406 467 27,000  Level New York Center
Tue 10:54:51 PM 40.6261 -78.0669 31° Northeast 416 479 27,000  Level New York Center
Tue 10:55:53 PM 40.7228 -77.9869 32° Northeast 416 479 27,000  Level New York Center
Tue 10:56:52 PM 40.8194 -77.9039 33° Northeast 416 479 27,000  Level New York Center
Tue 10:57:51 PM 40.9028 -77.7997 43° Northeast 416 479 27,000  Level New York Center
Tue 10:58:52 PM 40.9761 -77.6864 49° Northeast 408 470 27,000  Level New York Center
Tue 10:59:53 PM 41.0497 -77.5672 51° Northeast 408 470 27,000  Level New York Center
Tue 11:00:53 PM 41.1228 -77.4533 50° Northeast 407 468 27,000  Level New York Center
Tue 11:01:51 PM 41.2050 -77.3264 49° Northeast 407 468 27,000  Level New York Center
Tue 11:02:51 PM 41.2783 -77.2036 51° Northeast 407 468 27,000  Level New York Center
Tue 11:03:51 PM 41.3514 -77.0861 50° Northeast 407 468 27,000  Level New York Center
Tue 11:04:51 PM 41.4242 -76.9714 50° Northeast 407 468 27,000  Level New York Center
Tue 11:05:52 PM 41.4900 -76.8639 51° Northeast 407 468 27,000  Level New York Center
Tue 11:06:52 PM 41.5628 -76.7456 51° Northeast 407 468 27,000  Level New York Center
Tue 11:07:52 PM 41.6419 -76.6167 51° Northeast 401 461 27,000  Level New York Center
Tue 11:08:52 PM 41.7006 -76.5244 50° Northeast 406 467 27,000  Level New York Center
Tue 11:09:53 PM 41.7778 -76.3950 51° Northeast 406 467 27,000 -403 Level New York Center
Tue 11:10:51 PM 41.8478 -76.2756 52° Northeast 406 467 26,200 -1,068 Descending New York Center
Tue 11:11:51 PM 41.8933 -76.1483 64° Northeast 387 445 24,900 -763 Descending New York Center
Tue 11:13:44 PM 41.9914 -75.8928 63° Northeast 380 437 24,000 -312 Descending Boston Center
Tue 11:14:44 PM 42.0389 -75.7642 64° Northeast 380 437 24,000  Level Boston Center
Tue 11:15:44 PM 42.0844 -75.6378 64° Northeast 380 437 24,000  Level Boston Center
Tue 11:16:44 PM 42.1314 -75.5142 63° Northeast 380 437 24,000  Level Boston Center
Tue 11:17:44 PM 42.1786 -75.3903 63° Northeast 380 437 24,000  Level Boston Center
Tue 11:18:44 PM 42.2233 -75.2664 64° Northeast 380 437 24,000 -900 Level Boston Center
Tue 11:19:44 PM 42.2681 -75.1419 64° Northeast 380 437 22,200 -1,850 Descending Boston Center
Tue 11:20:44 PM 42.3147 -75.0206 62° Northeast 368 423 20,300 -1,944 Descending Boston Center
Tue 11:21:32 PM 42.3483 -74.9236 65° Northeast 364 419 18,700 -1,895 Descending Boston Center
Tue 11:22:38 PM 42.3947 -74.7961 64° Northeast 348 400 16,700 -1,843 Descending Boston Center
Tue 11:23:39 PM 42.4389 -74.6711 64° Northeast 343 395 14,800 -1,736 Descending Boston Center
Tue 11:24:39 PM 42.4806 -74.5600 63° Northeast 328 377 13,200 -1,587 Descending Boston Center
Tue 11:25:40 PM 42.5181 -74.4569 64° Northeast 300 345 11,600 -1,623 Descending Boston Center
Tue 11:26:41 PM 42.5531 -74.3594 64° Northeast 291 335 9,900 -1,537 Descending Boston Center
Tue 11:27:41 PM 42.5881 -74.2619 64° Northeast 287 330 8,500 -1,041 Descending Boston Center
Tue 11:28:42 PM 42.6208 -74.1669 65° Northeast 278 320 7,800 -639 Descending Boston Center
Tue 11:29:43 PM 42.6656 -74.0861 53° Northeast 276 318 7,200 -793 Descending Boston Center
Tue 11:30:43 PM 42.7311 -74.0369 29° Northeast 267 307 6,200 -893 Descending Boston Center
Tue 11:31:44 PM 42.7983 -73.9850 30° Northeast 266 306 5,400 -1,041 Descending Boston Center
Tue 11:32:44 PM 42.8658 -73.9386 27° Northeast 265 305 4,100 -893 Descending Boston Center
Tue 11:33:45 PM 42.9267 -73.8947 28° Northeast 242 278 3,600 -590 Descending Boston Center
Tue 11:34:46 PM 42.9464 -73.8300 67° East 179 206 2,900 -793 Descending Boston Center
Tue 11:35:46 PM 42.9028 -73.8119 163° South 153 176 2,000 -446 Descending Boston Center
Tue 11:36:47 PM 42.8589 -73.8139 182° South 148 170 2,000  Level Boston Center

Login

Don't have an account? Register now (free) for customized features, flight alerts, and more!